Time;durP1;ratioP1;P1;durP2;ratioP2;P2;SDS_P1;SDS_P2;PMS_P1;PMS_P2;Temp;Humidity;BMP_temperature;BMP_pressure;BME280_temperature;BME280_humidity;BME280_pressure;Samples;Min_cycle;Max_cycle;Signal;HPM_P1;HPM_P2
2022/12/26 00:01:10;;;;;;;36.83;16.88;;;;;;;;;;6105491;19;20010;-72
2022/12/26 00:03:14;;;;;;;32.92;16.00;;;;;;;;;;6107557;19;20003;-70
2022/12/26 00:05:22;;;;;;;33.40;17.27;;;;;;;;;;6106373;19;20011;-71
2022/12/26 00:07:27;;;;;;;35.85;16.55;;;;;;;;;;6106969;19;20027;-71
2022/12/26 00:09:31;;;;;;;41.25;18.05;;;;;;;;;;6107311;19;20368;-71
2022/12/26 00:11:37;;;;;;;38.00;18.20;;;;;;;;;;6107424;19;20010;-71
2022/12/26 00:13:42;;;;;;;40.53;19.00;;;;;;;;;;6106513;19;20002;-71
2022/12/26 00:15:46;;;;;;;46.15;20.85;;;;;;;;;;6105922;19;20014;-71
2022/12/26 00:17:51;;;;;;;41.92;19.00;;;;;;;;;;6106200;19;20078;-70
2022/12/26 00:19:56;;;;;;;43.13;19.55;;;;;;;;;;6105336;19;20006;-71
2022/12/26 00:22:03;;;;;;;48.67;22.33;;;;;;;;;;6105665;19;20038;-71
2022/12/26 00:24:09;;;;;;;46.17;20.63;;;;;;;;;;6107140;19;20021;-71
2022/12/26 00:26:13;;;;;;;48.58;21.88;;;;;;;;;;6107010;19;20014;-70
2022/12/26 00:28:18;;;;;;;41.72;19.65;;;;;;;;;;6106690;19;20367;-71
2022/12/26 00:30:22;;;;;;;44.97;21.50;;;;;;;;;;6106182;19;20010;-71
2022/12/26 00:32:27;;;;;;;44.00;19.67;;;;;;;;;;6106614;19;20014;-70
2022/12/26 00:34:33;;;;;;;46.33;20.25;;;;;;;;;;6107403;19;20002;-70
2022/12/26 00:36:37;;;;;;;38.33;19.20;;;;;;;;;;6103457;19;20127;-70
2022/12/26 00:38:46;;;;;;;35.45;17.35;;;;;;;;;;6105250;19;20020;-70
2022/12/26 00:40:51;;;;;;;43.03;19.85;;;;;;;;;;6106001;19;20018;-69
2022/12/26 00:42:55;;;;;;;39.92;18.98;;;;;;;;;;6105045;19;20023;-70
2022/12/26 00:45:00;;;;;;;34.88;16.85;;;;;;;;;;6106616;19;20015;-69
2022/12/26 00:47:05;;;;;;;39.70;18.85;;;;;;;;;;6104651;19;20387;-69
2022/12/26 00:49:10;;;;;;;42.25;19.52;;;;;;;;;;6105014;19;20279;-69
2022/12/26 00:51:15;;;;;;;39.30;18.65;;;;;;;;;;6106970;19;20017;-69
2022/12/26 00:53:20;;;;;;;34.17;18.25;;;;;;;;;;6103029;19;20006;-70
2022/12/26 00:55:27;;;;;;;36.17;19.60;;;;;;;;;;6104295;19;20356;-71
2022/12/26 00:57:32;;;;;;;38.40;18.77;;;;;;;;;;6104159;19;20051;-69
2022/12/26 00:59:37;;;;;;;35.97;17.77;;;;;;;;;;6104049;19;20483;-70
2022/12/26 01:01:42;;;;;;;36.42;18.65;;;;;;;;;;6103840;19;20031;-71
2022/12/26 01:03:48;;;;;;;32.97;16.08;;;;;;;;;;6103533;19;20007;-71
2022/12/26 01:05:53;;;;;;;35.58;17.67;;;;;;;;;;6106812;19;20392;-69
2022/12/26 01:07:58;;;;;;;34.67;16.10;;;;;;;;;;6104666;19;20015;-69
2022/12/26 01:10:23;;;;;;;32.55;16.40;;;;;;;;;;6112375;19;20033;-69
2022/12/26 01:12:30;;;;;;;37.80;17.42;;;;;;;;;;6109907;19;20015;-69
2022/12/26 01:14:35;;;;;;;36.20;16.75;;;;;;;;;;6111450;19;20011;-69
2022/12/26 01:16:39;;;;;;;32.83;17.08;;;;;;;;;;6109817;19;20043;-69
2022/12/26 01:18:44;;;;;;;37.67;15.65;;;;;;;;;;6110745;19;20022;-69
2022/12/26 01:20:49;;;;;;;35.47;18.08;;;;;;;;;;6112137;19;20014;-69
2022/12/26 01:22:54;;;;;;;33.63;14.02;;;;;;;;;;6110036;19;20023;-69
2022/12/26 01:25:00;;;;;;;33.47;15.60;;;;;;;;;;6111177;19;20034;-69
2022/12/26 01:27:05;;;;;;;38.90;17.35;;;;;;;;;;6110558;19;20519;-69
2022/12/26 01:29:13;;;;;;;34.17;15.57;;;;;;;;;;6111518;19;20028;-69
2022/12/26 01:31:20;;;;;;;29.35;14.27;;;;;;;;;;6111083;19;20030;-69
2022/12/26 01:33:24;;;;;;;31.05;14.13;;;;;;;;;;6110850;19;20046;-69
2022/12/26 01:35:29;;;;;;;33.20;16.25;;;;;;;;;;6108871;19;20021;-69
2022/12/26 01:37:34;;;;;;;29.05;13.25;;;;;;;;;;6110078;19;20035;-69
2022/12/26 01:39:39;;;;;;;29.63;14.70;;;;;;;;;;6109640;19;20006;-69
2022/12/26 01:41:43;;;;;;;27.05;13.77;;;;;;;;;;6110350;19;20598;-69
2022/12/26 01:43:59;;;;;;;27.63;14.65;;;;;;;;;;6109295;19;20043;-69
2022/12/26 01:46:07;;;;;;;24.35;12.30;;;;;;;;;;6109180;19;20038;-68
2022/12/26 01:48:17;;;;;;;24.63;12.57;;;;;;;;;;6109269;19;20074;-69
2022/12/26 01:50:37;;;;;;;25.27;13.63;;;;;;;;;;6109999;19;20021;-69
2022/12/26 01:52:46;;;;;;;28.33;13.50;;;;;;;;;;6104938;19;20510;-69
2022/12/26 01:54:53;;;;;;;26.33;13.73;;;;;;;;;;6110080;19;20078;-69
2022/12/26 01:56:58;;;;;;;29.80;15.02;;;;;;;;;;6110249;19;20343;-69
2022/12/26 01:59:05;;;;;;;29.02;15.23;;;;;;;;;;6110130;19;20011;-69
2022/12/26 02:01:12;;;;;;;28.38;15.13;;;;;;;;;;6107019;19;20398;-69
2022/12/26 02:05:33;;;;;;;32.65;16.60;;;;;;;;;;6109121;19;20028;-69
2022/12/26 02:07:41;;;;;;;28.10;14.98;;;;;;;;;;6107979;19;20007;-69
2022/12/26 02:09:46;;;;;;;30.50;15.07;;;;;;;;;;6110924;19;20620;-68
2022/12/26 02:11:54;;;;;;;25.13;14.05;;;;;;;;;;6109078;19;20086;-68
2022/12/26 02:14:19;;;;;;;26.50;14.32;;;;;;;;;;6107623;19;20002;-68
2022/12/26 02:16:27;;;;;;;26.92;13.95;;;;;;;;;;6110429;19;20086;-68
2022/12/26 02:18:32;;;;;;;24.67;13.32;;;;;;;;;;6108811;19;20014;-68
2022/12/26 02:20:43;;;;;;;24.48;13.88;;;;;;;;;;6105422;19;20021;-68
2022/12/26 02:23:14;;;;;;;26.42;13.15;;;;;;;;;;6109289;19;20014;-68
2022/12/26 02:25:51;;;;;;;27.00;13.05;;;;;;;;;;6110764;19;20024;-68
2022/12/26 02:28:25;;;;;;;24.98;13.38;;;;;;;;;;6107820;19;20010;-68
2022/12/26 02:30:34;;;;;;;;;;;;;;;;;;6110244;19;20010;-70
2022/12/26 02:32:55;;;;;;;27.33;14.32;;;;;;;;;;6105289;19;20788;-69
2022/12/26 02:35:06;;;;;;;22.65;12.40;;;;;;;;;;6110661;19;20026;-69
2022/12/26 02:37:24;;;;;;;28.48;13.77;;;;;;;;;;6108400;19;20453;-69
2022/12/26 02:40:48;;;;;;;;;;;;;;;;;;;;;
2022/12/26 03:13:37;;;;;;;28.63;14.77;;;;;;;;;;6108336;19;20349;-68
2022/12/26 03:18:08;;;;;;;26.88;14.77;;;;;;;;;;6107165;19;20011;-70
2022/12/26 03:20:14;;;;;;;24.75;13.50;;;;;;;;;;6108732;19;20015;-69
2022/12/26 03:22:32;;;;;;;25.67;12.82;;;;;;;;;;6107726;19;20014;-70
2022/12/26 03:26:38;;;;;;;23.90;11.77;;;;;;;;;;6105783;19;20328;-68
2022/12/26 03:27:03;;;;;;;20.70;11.25;;;;;;;;;;6108331;19;20045;-68
2022/12/26 03:31:27;;;;;;;21.35;11.63;;;;;;;;;;6104990;19;20335;-71
2022/12/26 03:35:53;;;;;;;22.10;9.85;;;;;;;;;;6106006;19;20094;-70
2022/12/26 03:37:58;;;;;;;18.00;9.52;;;;;;;;;;6105425;19;20412;-69
2022/12/26 04:20:19;;;;;;;11.50;6.20;;;;;;;;;;6102832;19;20033;-68
2022/12/26 04:45:57;;;;;;;9.18;4.28;;;;;;;;;;6107232;19;20822;-68
2022/12/26 04:50:19;;;;;;;9.73;4.57;;;;;;;;;;6109334;19;20007;-68
2022/12/26 04:52:24;;;;;;;6.75;3.72;;;;;;;;;;6109871;19;20045;-68
2022/12/26 04:54:51;;;;;;;12.40;4.47;;;;;;;;;;6108285;19;20007;-68
2022/12/26 04:56:56;;;;;;;8.20;3.75;;;;;;;;;;6111273;19;20047;-68
2022/12/26 04:59:01;;;;;;;6.63;3.20;;;;;;;;;;6109954;19;20767;-68
2022/12/26 05:10:47;;;;;;;9.05;4.30;;;;;;;;;;6105999;19;20343;-70
2022/12/26 05:12:52;;;;;;;7.88;4.30;;;;;;;;;;6110094;19;20014;-70
2022/12/26 05:14:57;;;;;;;7.47;3.58;;;;;;;;;;6111208;19;20574;-68
2022/12/26 05:28:43;;;;;;;7.30;3.53;;;;;;;;;;6110057;19;20514;-68
2022/12/26 05:30:48;;;;;;;8.10;3.67;;;;;;;;;;6106395;19;20719;-68
2022/12/26 05:35:11;;;;;;;8.23;4.13;;;;;;;;;;6110021;19;20038;-68
2022/12/26 05:37:15;;;;;;;8.90;3.92;;;;;;;;;;6109951;19;20073;-70
2022/12/26 05:39:20;;;;;;;9.13;3.88;;;;;;;;;;6108852;19;20010;-69
2022/12/26 05:41:27;;;;;;;8.02;4.30;;;;;;;;;;6109169;19;20013;-69
2022/12/26 05:43:33;;;;;;;8.90;3.97;;;;;;;;;;6109931;19;20010;-70
2022/12/26 05:45:37;;;;;;;13.75;5.50;;;;;;;;;;6109372;19;20578;-69
2022/12/26 05:47:42;;;;;;;10.32;4.68;;;;;;;;;;6110083;19;20096;-69
2022/12/26 05:49:55;;;;;;;12.35;5.03;;;;;;;;;;6109367;19;20010;-70
2022/12/26 05:52:00;;;;;;;8.45;4.45;;;;;;;;;;6110397;19;20014;-70
2022/12/26 05:54:05;;;;;;;9.98;4.25;;;;;;;;;;6106584;19;20015;-70
2022/12/26 05:56:12;;;;;;;8.52;3.58;;;;;;;;;;6110123;19;20007;-70
2022/12/26 05:58:20;;;;;;;9.63;4.80;;;;;;;;;;6109643;19;20014;-69
2022/12/26 06:00:25;;;;;;;10.27;4.55;;;;;;;;;;6109588;19;20373;-69
2022/12/26 06:02:31;;;;;;;11.38;5.18;;;;;;;;;;6108363;19;20018;-68
2022/12/26 06:04:36;;;;;;;16.85;6.43;;;;;;;;;;6109972;19;20069;-69
2022/12/26 06:06:40;;;;;;;11.48;4.20;;;;;;;;;;6107256;19;20368;-68
2022/12/26 06:08:45;;;;;;;8.73;4.60;;;;;;;;;;6108951;19;20022;-68
2022/12/26 06:10:50;;;;;;;10.23;4.75;;;;;;;;;;6109949;19;20463;-69
2022/12/26 06:12:54;;;;;;;35.50;5.82;;;;;;;;;;6109303;19;20026;-69
2022/12/26 06:15:02;;;;;;;12.35;4.25;;;;;;;;;;6106540;19;20345;-69
2022/12/26 06:17:06;;;;;;;8.10;4.05;;;;;;;;;;6106536;19;20003;-69
2022/12/26 06:19:11;;;;;;;9.93;4.68;;;;;;;;;;6107194;19;20443;-68
2022/12/26 06:21:18;;;;;;;11.80;4.72;;;;;;;;;;6109692;19;20475;-68
2022/12/26 06:23:23;;;;;;;9.80;4.43;;;;;;;;;;6110157;19;20078;-68
2022/12/26 06:25:28;;;;;;;9.48;4.88;;;;;;;;;;6109475;19;20483;-68
2022/12/26 06:27:33;;;;;;;9.73;5.70;;;;;;;;;;6108838;19;20011;-69
2022/12/26 06:29:38;;;;;;;8.68;4.40;;;;;;;;;;6108324;19;20463;-68
2022/12/26 06:31:45;;;;;;;10.40;4.50;;;;;;;;;;6106750;19;20552;-68
2022/12/26 06:33:51;;;;;;;10.98;4.63;;;;;;;;;;6106172;19;20014;-68
2022/12/26 06:35:56;;;;;;;8.90;3.88;;;;;;;;;;6108377;19;20014;-70
2022/12/26 06:38:00;;;;;;;8.82;4.78;;;;;;;;;;6109119;19;20323;-69
2022/12/26 06:40:06;;;;;;;11.65;3.92;;;;;;;;;;6107632;19;20024;-68
2022/12/26 06:42:11;;;;;;;12.00;5.63;;;;;;;;;;6107541;19;20014;-68
2022/12/26 06:44:16;;;;;;;13.32;4.93;;;;;;;;;;6108836;19;20042;-70
2022/12/26 06:46:25;;;;;;;12.65;4.85;;;;;;;;;;6108386;19;20006;-69
2022/12/26 06:48:38;;;;;;;12.68;5.15;;;;;;;;;;6108558;19;20035;-70
2022/12/26 06:50:43;;;;;;;10.02;4.57;;;;;;;;;;6107030;19;20021;-68
2022/12/26 06:52:48;;;;;;;10.27;4.57;;;;;;;;;;6102830;19;20010;-69
2022/12/26 06:54:52;;;;;;;7.25;4.10;;;;;;;;;;6109116;19;20458;-68
2022/12/26 06:56:57;;;;;;;8.77;4.13;;;;;;;;;;6108219;19;20850;-70
2022/12/26 06:59:03;;;;;;;10.82;4.53;;;;;;;;;;6107332;19;20839;-69
2022/12/26 07:01:09;;;;;;;7.75;4.10;;;;;;;;;;6106920;19;21303;-70
2022/12/26 07:03:13;;;;;;;8.00;3.97;;;;;;;;;;6108854;19;20010;-70
2022/12/26 07:05:21;;;;;;;7.53;3.90;;;;;;;;;;6107722;19;20010;-70
2022/12/26 07:07:25;;;;;;;8.20;4.00;;;;;;;;;;6107898;19;20006;-70
2022/12/26 07:09:30;;;;;;;8.98;4.30;;;;;;;;;;6106576;19;20006;-69
2022/12/26 07:11:39;;;;;;;7.53;4.18;;;;;;;;;;6108401;19;20010;-69
2022/12/26 07:13:44;;;;;;;11.65;4.32;;;;;;;;;;6107565;19;20014;-69
2022/12/26 07:15:49;;;;;;;10.75;4.35;;;;;;;;;;6105288;19;20010;-69
2022/12/26 07:17:54;;;;;;;12.00;4.32;;;;;;;;;;6105311;19;20486;-69
2022/12/26 07:19:58;;;;;;;10.40;4.32;;;;;;;;;;6103948;19;20007;-69
2022/12/26 07:22:06;;;;;;;4.38;3.20;;;;;;;;;;6106356;19;20014;-69
2022/12/26 07:24:16;;;;;;;10.20;3.90;;;;;;;;;;6102689;19;20136;-69
2022/12/26 07:26:21;;;;;;;9.50;4.28;;;;;;;;;;6104513;19;20058;-69
2022/12/26 07:28:26;;;;;;;6.70;3.40;;;;;;;;;;6104781;19;20014;-69
2022/12/26 07:30:31;;;;;;;9.55;3.80;;;;;;;;;;6104038;19;20002;-70
2022/12/26 07:32:35;;;;;;;9.90;4.35;;;;;;;;;;6104483;19;19998;-70
2022/12/26 07:34:40;;;;;;;9.30;4.03;;;;;;;;;;6101715;19;20006;-69
2022/12/26 07:36:45;;;;;;;9.73;4.20;;;;;;;;;;6104770;19;20038;-69
2022/12/26 07:38:53;;;;;;;9.52;3.88;;;;;;;;;;6104380;19;20003;-69
2022/12/26 07:40:58;;;;;;;11.63;3.92;;;;;;;;;;6104545;19;20026;-69
2022/12/26 07:43:02;;;;;;;11.05;4.82;;;;;;;;;;6104203;19;20006;-69
2022/12/26 07:45:09;;;;;;;11.60;4.10;;;;;;;;;;6104535;19;20017;-70
2022/12/26 07:47:13;;;;;;;14.40;5.20;;;;;;;;;;6104704;19;20094;-70
2022/12/26 07:49:18;;;;;;;8.82;3.97;;;;;;;;;;6104273;19;20094;-69
2022/12/26 07:51:23;;;;;;;11.77;5.22;;;;;;;;;;6103659;19;20065;-70
2022/12/26 07:53:28;;;;;;;9.27;4.53;;;;;;;;;;6098687;19;20527;-70
2022/12/26 07:55:38;;;;;;;14.07;5.80;;;;;;;;;;6104870;19;20011;-69
2022/12/26 07:57:43;;;;;;;8.05;4.43;;;;;;;;;;6103553;19;20031;-69
2022/12/26 07:59:53;;;;;;;8.88;4.53;;;;;;;;;;6103654;19;20018;-69
2022/12/26 08:01:58;;;;;;;9.88;4.70;;;;;;;;;;6103883;19;20018;-69
2022/12/26 08:04:04;;;;;;;11.63;4.90;;;;;;;;;;6106240;19;20006;-69
2022/12/26 08:06:09;;;;;;;9.90;5.00;;;;;;;;;;6106562;19;20459;-69
2022/12/26 08:08:15;;;;;;;11.75;4.40;;;;;;;;;;6105479;19;20018;-69
2022/12/26 08:10:20;;;;;;;7.53;3.88;;;;;;;;;;6104950;19;20042;-69
2022/12/26 08:12:27;;;;;;;9.52;4.65;;;;;;;;;;6101958;19;20129;-70
2022/12/26 08:14:32;;;;;;;13.52;5.05;;;;;;;;;;6103677;19;20011;-70
2022/12/26 08:16:36;;;;;;;13.70;4.60;;;;;;;;;;6102732;19;20058;-70
2022/12/26 08:18:42;;;;;;;10.50;5.38;;;;;;;;;;6104069;19;20011;-70
2022/12/26 08:20:46;;;;;;;14.00;6.07;;;;;;;;;;6104821;19;20672;-71
2022/12/26 08:22:51;;;;;;;10.50;4.75;;;;;;;;;;6105280;19;20022;-71
2022/12/26 08:24:56;;;;;;;8.60;4.00;;;;;;;;;;6107406;19;20011;-69
2022/12/26 08:27:01;;;;;;;7.70;3.60;;;;;;;;;;6105514;19;20015;-70
2022/12/26 08:29:08;;;;;;;7.15;3.03;;;;;;;;;;6101788;19;20043;-70
2022/12/26 08:31:14;;;;;;;6.28;2.38;;;;;;;;;;6099346;19;20327;-70
2022/12/26 08:33:19;;;;;;;5.40;2.45;;;;;;;;;;6103817;19;20011;-70
2022/12/26 08:35:24;;;;;;;10.90;2.88;;;;;;;;;;6103675;19;20014;-70
2022/12/26 08:37:28;;;;;;;6.55;2.40;;;;;;;;;;6102876;19;20570;-70
2022/12/26 08:39:33;;;;;;;7.07;2.58;;;;;;;;;;6098883;19;20018;-70
2022/12/26 08:41:38;;;;;;;7.88;3.00;;;;;;;;;;6100869;19;20078;-70
2022/12/26 08:43:44;;;;;;;7.00;2.63;;;;;;;;;;6102505;19;20010;-70
2022/12/26 08:46:13;;;;;;;10.48;3.10;;;;;;;;;;6100666;19;20017;-70
2022/12/26 08:48:18;;;;;;;8.75;2.42;;;;;;;;;;6101376;19;20379;-69
2022/12/26 08:50:22;;;;;;;10.30;3.28;;;;;;;;;;6101667;19;20130;-69
2022/12/26 08:52:27;;;;;;;10.68;2.88;;;;;;;;;;6098137;19;20015;-69
2022/12/26 08:54:32;;;;;;;9.57;2.90;;;;;;;;;;6100941;19;20254;-70
2022/12/26 08:56:37;;;;;;;13.80;3.45;;;;;;;;;;6098360;19;20014;-69
2022/12/26 08:58:42;;;;;;;8.55;2.78;;;;;;;;;;6101817;19;20542;-69
2022/12/26 09:00:46;;;;;;;12.07;3.20;;;;;;;;;;6101159;19;20487;-69
2022/12/26 09:03:01;;;;;;;10.20;2.95;;;;;;;;;;6100771;19;20014;-69
2022/12/26 09:05:07;;;;;;;15.35;4.40;;;;;;;;;;6103015;19;20018;-68
2022/12/26 09:07:12;;;;;;;12.93;2.92;;;;;;;;;;6102286;19;20013;-68
2022/12/26 09:09:16;;;;;;;7.15;3.03;;;;;;;;;;6103129;19;20019;-69
2022/12/26 09:11:25;;;;;;;8.93;2.92;;;;;;;;;;6101808;19;20130;-68
2022/12/26 09:13:30;;;;;;;14.80;2.70;;;;;;;;;;6098939;19;20086;-68
2022/12/26 09:15:35;;;;;;;14.75;3.38;;;;;;;;;;6098779;19;20019;-69
2022/12/26 09:17:40;;;;;;;9.55;2.42;;;;;;;;;;6104354;19;20448;-69
2022/12/26 09:19:47;;;;;;;9.45;2.95;;;;;;;;;;6103075;19;20011;-69
2022/12/26 09:22:49;;;;;;;9.45;2.70;;;;;;;;;;6101261;19;20019;-69
2022/12/26 09:24:19;;;;;;;9.77;2.78;;;;;;;;;;6103677;19;20011;-70
2022/12/26 09:26:24;;;;;;;12.52;3.35;;;;;;;;;;6100775;19;20082;-70
2022/12/26 09:28:29;;;;;;;6.78;3.28;;;;;;;;;;6103762;19;20010;-70
2022/12/26 09:30:34;;;;;;;12.27;2.58;;;;;;;;;;6107106;19;20021;-70
2022/12/26 09:32:39;;;;;;;7.43;2.35;;;;;;;;;;6105128;19;20022;-69
2022/12/26 09:34:47;;;;;;;6.03;2.63;;;;;;;;;;6106810;19;20637;-70
2022/12/26 09:36:52;;;;;;;8.43;2.45;;;;;;;;;;6106714;19;20010;-70
2022/12/26 09:38:58;;;;;;;10.15;2.50;;;;;;;;;;6107334;19;20023;-69
2022/12/26 09:41:16;;;;;;;10.60;3.28;;;;;;;;;;6107012;19;20014;-69
2022/12/26 09:43:28;;;;;;;9.80;2.65;;;;;;;;;;6106714;19;20490;-69
2022/12/26 09:45:45;;;;;;;9.73;2.50;;;;;;;;;;6108154;19;20010;-70
2022/12/26 09:47:59;;;;;;;10.82;3.13;;;;;;;;;;6108026;19;20023;-69
2022/12/26 09:50:14;;;;;;;3.75;2.05;;;;;;;;;;6106603;19;20418;-70
2022/12/26 09:52:23;;;;;;;8.88;2.53;;;;;;;;;;6105683;19;20354;-70
2022/12/26 09:54:33;;;;;;;10.40;3.00;;;;;;;;;;6107254;19;20011;-70
2022/12/26 09:56:41;;;;;;;13.55;2.67;;;;;;;;;;6103434;19;20006;-70
2022/12/26 09:59:09;;;;;;;5.00;2.05;;;;;;;;;;6104351;19;20011;-70
2022/12/26 10:01:19;;;;;;;11.48;4.18;;;;;;;;;;6101759;19;20054;-70
2022/12/26 10:03:24;;;;;;;8.02;3.40;;;;;;;;;;6105288;19;20014;-70
2022/12/26 10:05:36;;;;;;;9.40;2.67;;;;;;;;;;6107994;19;20019;-70
2022/12/26 10:07:44;;;;;;;7.38;2.65;;;;;;;;;;6105882;19;20613;-70
2022/12/26 10:09:54;;;;;;;11.25;3.00;;;;;;;;;;6110531;19;20017;-70
2022/12/26 10:12:20;;;;;;;9.05;2.63;;;;;;;;;;6107141;19;20106;-70
2022/12/26 10:14:30;;;;;;;9.23;2.60;;;;;;;;;;6109490;19;20015;-70
2022/12/26 10:16:44;;;;;;;8.57;2.58;;;;;;;;;;6108661;19;20014;-70
2022/12/26 10:18:58;;;;;;;7.13;2.65;;;;;;;;;;6106313;19;20014;-70
2022/12/26 10:21:24;;;;;;;6.25;2.47;;;;;;;;;;6109555;19;20006;-70
2022/12/26 10:23:35;;;;;;;8.75;3.10;;;;;;;;;;6107894;19;20517;-71
2022/12/26 10:25:44;;;;;;;7.20;2.58;;;;;;;;;;6108984;19;20021;-70
2022/12/26 10:27:51;;;;;;;9.68;3.65;;;;;;;;;;6109941;19;20372;-70
2022/12/26 10:30:01;;;;;;;5.47;2.15;;;;;;;;;;6107961;19;20026;-70
2022/12/26 10:32:08;;;;;;;6.55;2.70;;;;;;;;;;6108008;19;20119;-70
2022/12/26 10:34:18;;;;;;;7.20;2.70;;;;;;;;;;6107704;19;20050;-70
2022/12/26 10:36:36;;;;;;;7.07;3.13;;;;;;;;;;6108851;19;20070;-70
2022/12/26 10:38:42;;;;;;;5.95;2.42;;;;;;;;;;6105791;19;20011;-70
2022/12/26 10:40:49;;;;;;;6.47;2.35;;;;;;;;;;6107600;19;20478;-70
2022/12/26 10:42:55;;;;;;;4.72;2.03;;;;;;;;;;6106659;19;20011;-70
2022/12/26 10:45:00;;;;;;;4.32;3.10;;;;;;;;;;6108969;19;20369;-70
2022/12/26 10:47:24;;;;;;;13.02;3.67;;;;;;;;;;6106981;19;20020;-70
2022/12/26 10:49:29;;;;;;;8.77;2.80;;;;;;;;;;6100790;19;20066;-71
2022/12/26 10:51:36;;;;;;;6.93;3.08;;;;;;;;;;6103550;19;20036;-70
2022/12/26 10:53:45;;;;;;;7.45;2.88;;;;;;;;;;6101003;19;20586;-70
2022/12/26 10:55:49;;;;;;;8.30;2.78;;;;;;;;;;6108440;19;20018;-72
2022/12/26 10:57:55;;;;;;;7.40;2.63;;;;;;;;;;6106949;19;20463;-71
2022/12/26 11:00:00;;;;;;;8.05;2.55;;;;;;;;;;6102926;19;20027;-70
2022/12/26 11:02:17;;;;;;;13.20;3.03;;;;;;;;;;6101157;19;20488;-70
2022/12/26 11:04:23;;;;;;;7.70;2.63;;;;;;;;;;6103717;19;20010;-70
2022/12/26 11:06:53;;;;;;;7.20;2.38;;;;;;;;;;6101176;19;20014;-69
2022/12/26 11:08:58;;;;;;;10.15;2.58;;;;;;;;;;6103744;19;20040;-70
2022/12/26 11:11:05;;;;;;;14.63;2.83;;;;;;;;;;6104315;19;20006;-69
2022/12/26 11:13:20;;;;;;;8.32;3.00;;;;;;;;;;6105851;19;20038;-69
2022/12/26 11:15:30;;;;;;;11.57;2.83;;;;;;;;;;6103486;19;20799;-70
2022/12/26 11:17:43;;;;;;;10.48;3.60;;;;;;;;;;6104855;19;20486;-70
2022/12/26 11:19:48;;;;;;;11.32;2.55;;;;;;;;;;6103952;19;20025;-70
2022/12/26 11:21:56;;;;;;;7.45;2.85;;;;;;;;;;6105453;19;20026;-69
2022/12/26 11:24:18;;;;;;;6.20;2.38;;;;;;;;;;6103938;19;20010;-70
2022/12/26 11:26:25;;;;;;;5.57;2.53;;;;;;;;;;6104587;19;20113;-69
2022/12/26 11:28:32;;;;;;;8.23;3.13;;;;;;;;;;6103502;19;20007;-70
2022/12/26 11:30:40;;;;;;;5.13;2.80;;;;;;;;;;6102820;19;20030;-69
2022/12/26 11:32:50;;;;;;;6.80;2.50;;;;;;;;;;6107724;19;20094;-71
2022/12/26 11:34:55;;;;;;;8.27;2.40;;;;;;;;;;6108486;19;20015;-70
2022/12/26 11:37:03;;;;;;;8.57;2.83;;;;;;;;;;6107493;19;20346;-70
2022/12/26 11:39:10;;;;;;;11.50;2.10;;;;;;;;;;6107816;19;20014;-70
2022/12/26 11:41:30;;;;;;;6.95;2.33;;;;;;;;;;6107782;19;20011;-70
2022/12/26 11:43:35;;;;;;;4.00;1.67;;;;;;;;;;6108207;19;20074;-70
2022/12/26 11:45:43;;;;;;;4.43;1.80;;;;;;;;;;6107165;19;20089;-70
2022/12/26 11:47:48;;;;;;;5.15;1.90;;;;;;;;;;6106851;19;20011;-70
2022/12/26 11:49:56;;;;;;;3.50;2.17;;;;;;;;;;6106948;19;20011;-70
2022/12/26 11:52:05;;;;;;;4.72;1.77;;;;;;;;;;6104556;19;20014;-70
2022/12/26 11:54:37;;;;;;;7.38;2.13;;;;;;;;;;6107127;19;20117;-70
2022/12/26 11:56:42;;;;;;;6.63;2.25;;;;;;;;;;6100159;19;20470;-71
2022/12/26 11:58:46;;;;;;;3.60;1.50;;;;;;;;;;6105760;19;20030;-70
2022/12/26 12:01:09;;;;;;;4.13;1.95;;;;;;;;;;6101069;19;20010;-71
2022/12/26 12:03:15;;;;;;;;;;;;;;;;;;6106127;19;20039;-70
2022/12/26 12:05:39;;;;;;;3.65;1.65;;;;;;;;;;6101331;19;19914;-70
2022/12/26 12:08:25;;;;;;;5.35;1.83;;;;;;;;;;6102058;19;20049;-70
2022/12/26 12:11:03;;;;;;;5.10;2.08;;;;;;;;;;6098339;19;20062;-71
2022/12/26 12:13:13;;;;;;;1.58;1.48;;;;;;;;;;6093745;19;20014;-71
2022/12/26 12:15:22;;;;;;;4.72;1.83;;;;;;;;;;6103076;19;20010;-71
2022/12/26 12:17:32;;;;;;;4.68;1.85;;;;;;;;;;6099902;19;20006;-72
2022/12/26 12:19:48;;;;;;;3.58;1.70;;;;;;;;;;6101829;19;20021;-73
2022/12/26 12:22:05;;;;;;;4.50;1.58;;;;;;;;;;6100536;19;20478;-73
2022/12/26 12:24:34;;;;;;;5.07;2.42;;;;;;;;;;6098958;19;20585;-72
2022/12/26 12:26:45;;;;;;;7.30;2.25;;;;;;;;;;6097711;19;20014;-70
2022/12/26 12:29:31;;;;;;;3.25;2.10;;;;;;;;;;6098062;19;20311;-71
2022/12/26 12:31:47;;;;;;;4.20;2.00;;;;;;;;;;6101264;19;20070;-71
2022/12/26 12:33:58;;;;;;;3.70;1.95;;;;;;;;;;6099413;19;20500;-72
2022/12/26 12:36:12;;;;;;;6.88;2.17;;;;;;;;;;6099637;19;20475;-73
2022/12/26 12:38:32;;;;;;;7.53;2.63;;;;;;;;;;6101240;19;20042;-73
2022/12/26 12:40:41;;;;;;;4.50;1.90;;;;;;;;;;6102049;19;20392;-71
2022/12/26 12:42:56;;;;;;;8.05;2.83;;;;;;;;;;6096881;19;20011;-73
2022/12/26 12:45:16;;;;;;;6.13;1.77;;;;;;;;;;6100519;19;20007;-72
2022/12/26 12:47:27;;;;;;;5.30;1.88;;;;;;;;;;6100240;19;20061;-71
2022/12/26 12:49:43;;;;;;;6.72;1.70;;;;;;;;;;6099528;19;20094;-72
2022/12/26 12:51:54;;;;;;;4.88;1.88;;;;;;;;;;6099859;19;20014;-70
2022/12/26 12:54:19;;;;;;;4.75;1.90;;;;;;;;;;6098094;19;20014;-70
2022/12/26 12:56:32;;;;;;;6.60;1.90;;;;;;;;;;6100970;19;19999;-72
2022/12/26 12:58:53;;;;;;;4.97;2.05;;;;;;;;;;6099993;19;20018;-72
2022/12/26 13:01:00;;;;;;;3.45;2.50;;;;;;;;;;6097552;19;20098;-70
2022/12/26 13:03:11;;;;;;;5.75;2.13;;;;;;;;;;6101700;19;20010;-72
2022/12/26 13:05:24;;;;;;;3.10;1.92;;;;;;;;;;6104248;19;20015;-72
2022/12/26 13:07:34;;;;;;;12.80;2.10;;;;;;;;;;6106829;19;20512;-71
2022/12/26 13:09:45;;;;;;;5.15;1.40;;;;;;;;;;6109255;19;20078;-71
2022/12/26 13:11:53;;;;;;;5.25;1.58;;;;;;;;;;6109298;19;20018;-71
2022/12/26 13:14:04;;;;;;;6.70;2.00;;;;;;;;;;6104800;19;20121;-73
2022/12/26 13:16:13;;;;;;;5.97;1.58;;;;;;;;;;6107368;19;20038;-73
2022/12/26 13:18:21;;;;;;;7.45;1.58;;;;;;;;;;6104032;19;20011;-73
2022/12/26 13:20:32;;;;;;;3.42;1.58;;;;;;;;;;6105123;19;20007;-73
2022/12/26 13:25:00;;;;;;;3.65;1.70;;;;;;;;;;6103359;19;20058;-71
2022/12/26 13:27:12;;;;;;;4.53;1.33;;;;;;;;;;6105941;19;20014;-71
2022/12/26 13:29:33;;;;;;;4.00;1.77;;;;;;;;;;6105784;19;20003;-73
2022/12/26 13:31:41;;;;;;;7.45;3.88;;;;;;;;;;6106403;19;20777;-72
2022/12/26 13:33:46;;;;;;;7.10;1.63;;;;;;;;;;6104420;19;20014;-73
2022/12/26 13:35:56;;;;;;;5.72;1.77;;;;;;;;;;6105072;19;20467;-72
2022/12/26 13:38:01;;;;;;;4.97;1.55;;;;;;;;;;6104385;19;20018;-73
2022/12/26 13:40:12;;;;;;;4.28;1.55;;;;;;;;;;6105470;19;20014;-73
2022/12/26 13:44:54;;;;;;;4.75;1.63;;;;;;;;;;6100874;19;20011;-71
2022/12/26 13:46:59;;;;;;;3.25;1.60;;;;;;;;;;6106678;19;20581;-72
2022/12/26 13:49:05;;;;;;;6.20;2.50;;;;;;;;;;6101017;19;20011;-70
2022/12/26 13:51:59;;;;;;;18.27;12.57;;;;;;;;;;6106364;19;20021;-73
2022/12/26 13:54:09;;;;;;;7.80;2.95;;;;;;;;;;6107727;19;20011;-72
2022/12/26 13:57:04;;;;;;;8.13;2.28;;;;;;;;;;6110061;19;20027;-72
2022/12/26 13:59:13;;;;;;;4.88;2.13;;;;;;;;;;6104512;19;20018;-72
2022/12/26 14:01:38;;;;;;;8.60;1.85;;;;;;;;;;6105998;19;20026;-70
2022/12/26 14:04:02;;;;;;;7.38;2.88;;;;;;;;;;6103201;19;20018;-70
2022/12/26 14:06:29;;;;;;;4.18;1.67;;;;;;;;;;6108792;19;20011;-72
2022/12/26 14:08:41;;;;;;;5.22;1.30;;;;;;;;;;6105386;19;20031;-71
2022/12/26 14:10:57;;;;;;;5.40;1.53;;;;;;;;;;6100730;19;20003;-71
2022/12/26 14:13:07;;;;;;;9.45;2.50;;;;;;;;;;6108200;19;20359;-73
2022/12/26 14:15:23;;;;;;;7.80;2.20;;;;;;;;;;6105910;19;20071;-73
2022/12/26 14:17:40;;;;;;;8.43;2.10;;;;;;;;;;6106987;19;20010;-74
2022/12/26 14:19:53;;;;;;;3.95;1.48;;;;;;;;;;6107871;19;20479;-72
2022/12/26 14:22:02;;;;;;;5.43;1.90;;;;;;;;;;6104550;19;20050;-74
2022/12/26 14:24:19;;;;;;;3.45;1.85;;;;;;;;;;6105743;19;20010;-72
2022/12/26 14:26:38;;;;;;;7.97;1.52;;;;;;;;;;6105049;19;20022;-73
2022/12/26 14:28:53;;;;;;;7.20;2.25;;;;;;;;;;6100820;19;20025;-75
2022/12/26 14:31:12;;;;;;;6.82;1.48;;;;;;;;;;6102388;19;20396;-73
2022/12/26 14:33:29;;;;;;;7.78;2.70;;;;;;;;;;6106458;19;20082;-71
2022/12/26 14:35:40;;;;;;;6.55;1.73;;;;;;;;;;6107608;19;20475;-72
2022/12/26 14:37:50;;;;;;;6.25;1.73;;;;;;;;;;6106886;19;20014;-73
2022/12/26 14:40:06;;;;;;;4.45;1.50;;;;;;;;;;6105571;19;20531;-72
2022/12/26 14:44:47;;;;;;;6.88;2.08;;;;;;;;;;6102168;19;20011;-71
2022/12/26 14:47:00;;;;;;;4.00;1.77;;;;;;;;;;6102854;19;20475;-73
2022/12/26 14:49:25;;;;;;;6.85;2.42;;;;;;;;;;6100825;19;20014;-72
2022/12/26 14:51:42;;;;;;;6.88;2.17;;;;;;;;;;6087734;19;20042;-74
2022/12/26 14:53:48;;;;;;;5.15;2.17;;;;;;;;;;6085116;19;20021;-74
2022/12/26 14:55:54;;;;;;;11.60;2.28;;;;;;;;;;6091708;19;20037;-74
2022/12/26 14:58:31;;;;;;;13.45;2.45;;;;;;;;;;6091562;19;20661;-74
2022/12/26 15:00:39;;;;;;;9.00;2.70;;;;;;;;;;6086559;19;20984;-74
2022/12/26 15:02:46;;;;;;;9.30;2.50;;;;;;;;;;6081150;19;20427;-74
2022/12/26 15:05:08;;;;;;;5.47;2.03;;;;;;;;;;6083073;19;20717;-73
2022/12/26 15:07:38;;;;;;;7.30;2.17;;;;;;;;;;6088747;19;20489;-72
2022/12/26 15:09:56;;;;;;;4.95;2.22;;;;;;;;;;6089760;19;20006;-73